sensor_id;sensor_type;location;lat;lon;timestamp;P1;durP1;ratioP1;P2;durP2;ratioP2
68763;SDS011;55754;52.038;5.566;2022-12-16T00:00:05;38.83;;;20.77;;
68763;SDS011;55754;52.038;5.566;2022-12-16T00:02:32;41.83;;;21.15;;
68763;SDS011;55754;52.038;5.566;2022-12-16T00:04:58;41.90;;;21.38;;
68763;SDS011;55754;52.038;5.566;2022-12-16T00:07:24;39.40;;;21.10;;
68763;SDS011;55754;52.038;5.566;2022-12-16T00:09:49;45.30;;;20.97;;
68763;SDS011;55754;52.038;5.566;2022-12-16T00:12:15;38.15;;;20.92;;
68763;SDS011;55754;52.038;5.566;2022-12-16T00:14:40;38.70;;;20.40;;
68763;SDS011;55754;52.038;5.566;2022-12-16T00:17:06;39.90;;;20.73;;
68763;SDS011;55754;52.038;5.566;2022-12-16T00:19:31;40.35;;;21.25;;
68763;SDS011;55754;52.038;5.566;2022-12-16T00:21:57;39.05;;;20.80;;
68763;SDS011;55754;52.038;5.566;2022-12-16T00:24:22;42.57;;;21.27;;
68763;SDS011;55754;52.038;5.566;2022-12-16T00:26:48;44.13;;;21.47;;
68763;SDS011;55754;52.038;5.566;2022-12-16T00:29:13;42.17;;;20.58;;
68763;SDS011;55754;52.038;5.566;2022-12-16T00:31:39;42.20;;;21.10;;
68763;SDS011;55754;52.038;5.566;2022-12-16T00:34:05;44.22;;;23.90;;
68763;SDS011;55754;52.038;5.566;2022-12-16T00:36:30;41.97;;;22.00;;
68763;SDS011;55754;52.038;5.566;2022-12-16T00:38:56;43.87;;;20.77;;
68763;SDS011;55754;52.038;5.566;2022-12-16T00:41:21;49.33;;;21.65;;
68763;SDS011;55754;52.038;5.566;2022-12-16T00:43:47;44.67;;;21.75;;
68763;SDS011;55754;52.038;5.566;2022-12-16T00:46:12;44.67;;;21.97;;
68763;SDS011;55754;52.038;5.566;2022-12-16T00:48:38;39.20;;;20.63;;
68763;SDS011;55754;52.038;5.566;2022-12-16T00:51:04;39.90;;;20.97;;
68763;SDS011;55754;52.038;5.566;2022-12-16T00:53:29;42.90;;;20.33;;
68763;SDS011;55754;52.038;5.566;2022-12-16T00:56:05;42.55;;;20.75;;
68763;SDS011;55754;52.038;5.566;2022-12-16T00:58:32;43.08;;;20.90;;
68763;SDS011;55754;52.038;5.566;2022-12-16T01:00:59;41.33;;;21.65;;
68763;SDS011;55754;52.038;5.566;2022-12-16T01:03:24;40.93;;;20.33;;
68763;SDS011;55754;52.038;5.566;2022-12-16T01:05:50;41.20;;;21.13;;
68763;SDS011;55754;52.038;5.566;2022-12-16T01:08:15;40.73;;;20.30;;
68763;SDS011;55754;52.038;5.566;2022-12-16T01:10:41;36.83;;;20.00;;
68763;SDS011;55754;52.038;5.566;2022-12-16T01:13:07;40.88;;;20.50;;
68763;SDS011;55754;52.038;5.566;2022-12-16T01:15:32;45.10;;;20.00;;
68763;SDS011;55754;52.038;5.566;2022-12-16T01:17:58;39.70;;;21.10;;
68763;SDS011;55754;52.038;5.566;2022-12-16T01:20:23;45.10;;;21.38;;
68763;SDS011;55754;52.038;5.566;2022-12-16T01:22:49;43.15;;;20.85;;
68763;SDS011;55754;52.038;5.566;2022-12-16T01:25:14;45.37;;;22.13;;
68763;SDS011;55754;52.038;5.566;2022-12-16T01:27:41;42.88;;;22.30;;
68763;SDS011;55754;52.038;5.566;2022-12-16T01:30:07;41.00;;;20.80;;
68763;SDS011;55754;52.038;5.566;2022-12-16T01:32:34;40.10;;;20.77;;
68763;SDS011;55754;52.038;5.566;2022-12-16T01:35:00;41.58;;;19.95;;
68763;SDS011;55754;52.038;5.566;2022-12-16T01:37:26;37.47;;;20.87;;
68763;SDS011;55754;52.038;5.566;2022-12-16T01:39:51;43.83;;;21.77;;
68763;SDS011;55754;52.038;5.566;2022-12-16T01:42:19;42.72;;;20.90;;
68763;SDS011;55754;52.038;5.566;2022-12-16T01:44:46;41.65;;;22.80;;
68763;SDS011;55754;52.038;5.566;2022-12-16T01:47:15;40.57;;;20.40;;
68763;SDS011;55754;52.038;5.566;2022-12-16T01:49:49;41.15;;;20.40;;
68763;SDS011;55754;52.038;5.566;2022-12-16T01:52:26;43.20;;;21.58;;
68763;SDS011;55754;52.038;5.566;2022-12-16T01:57:49;45.38;;;21.92;;
68763;SDS011;55754;52.038;5.566;2022-12-16T02:00:21;41.93;;;20.93;;
68763;SDS011;55754;52.038;5.566;2022-12-16T02:02:46;40.67;;;21.23;;
68763;SDS011;55754;52.038;5.566;2022-12-16T02:05:13;44.45;;;21.25;;
68763;SDS011;55754;52.038;5.566;2022-12-16T02:10:54;42.00;;;21.80;;
68763;SDS011;55754;52.038;5.566;2022-12-16T02:16:18;42.35;;;21.92;;
68763;SDS011;55754;52.038;5.566;2022-12-16T02:27:13;44.30;;;21.38;;
68763;SDS011;55754;52.038;5.566;2022-12-16T02:33:03;46.70;;;20.95;;
68763;SDS011;55754;52.038;5.566;2022-12-16T02:36:49;40.53;;;21.37;;
68763;SDS011;55754;52.038;5.566;2022-12-16T02:44:11;37.90;;;21.40;;
68763;SDS011;55754;52.038;5.566;2022-12-16T02:46:39;42.22;;;21.00;;
68763;SDS011;55754;52.038;5.566;2022-12-16T02:49:08;42.80;;;21.53;;
68763;SDS011;55754;52.038;5.566;2022-12-16T02:51:55;40.65;;;20.45;;
68763;SDS011;55754;52.038;5.566;2022-12-16T02:54:23;38.35;;;20.42;;
68763;SDS011;55754;52.038;5.566;2022-12-16T02:57:02;41.22;;;21.98;;
68763;SDS011;55754;52.038;5.566;2022-12-16T03:05:19;41.53;;;20.90;;
68763;SDS011;55754;52.038;5.566;2022-12-16T03:08:08;41.42;;;20.58;;
68763;SDS011;55754;52.038;5.566;2022-12-16T03:10:46;41.63;;;21.88;;
68763;SDS011;55754;52.038;5.566;2022-12-16T03:13:16;44.47;;;21.85;;
68763;SDS011;55754;52.038;5.566;2022-12-16T03:15:43;46.10;;;22.17;;
68763;SDS011;55754;52.038;5.566;2022-12-16T03:18:12;43.38;;;21.33;;
68763;SDS011;55754;52.038;5.566;2022-12-16T03:20:42;44.42;;;22.08;;
68763;SDS011;55754;52.038;5.566;2022-12-16T03:23:15;42.88;;;22.42;;
68763;SDS011;55754;52.038;5.566;2022-12-16T03:25:46;41.80;;;22.40;;
68763;SDS011;55754;52.038;5.566;2022-12-16T03:31:12;43.13;;;21.58;;
68763;SDS011;55754;52.038;5.566;2022-12-16T03:33:46;42.75;;;22.00;;
68763;SDS011;55754;52.038;5.566;2022-12-16T03:36:19;44.05;;;22.10;;
68763;SDS011;55754;52.038;5.566;2022-12-16T03:38:49;48.27;;;21.63;;
68763;SDS011;55754;52.038;5.566;2022-12-16T03:41:16;40.53;;;21.95;;
68763;SDS011;55754;52.038;5.566;2022-12-16T03:43:44;41.97;;;22.05;;
68763;SDS011;55754;52.038;5.566;2022-12-16T03:46:12;39.05;;;20.90;;
68763;SDS011;55754;52.038;5.566;2022-12-16T03:48:49;43.15;;;20.90;;
68763;SDS011;55754;52.038;5.566;2022-12-16T03:51:16;41.93;;;22.20;;
68763;SDS011;55754;52.038;5.566;2022-12-16T03:53:43;41.10;;;21.50;;
68763;SDS011;55754;52.038;5.566;2022-12-16T03:56:09;45.10;;;20.83;;
68763;SDS011;55754;52.038;5.566;2022-12-16T03:58:35;41.92;;;20.83;;
68763;SDS011;55754;52.038;5.566;2022-12-16T04:01:03;42.17;;;20.67;;
68763;SDS011;55754;52.038;5.566;2022-12-16T04:03:30;44.10;;;20.10;;
68763;SDS011;55754;52.038;5.566;2022-12-16T04:05:56;45.35;;;20.42;;
68763;SDS011;55754;52.038;5.566;2022-12-16T04:08:21;40.77;;;20.23;;
68763;SDS011;55754;52.038;5.566;2022-12-16T04:10:49;41.07;;;20.27;;
68763;SDS011;55754;52.038;5.566;2022-12-16T04:13:34;46.03;;;20.70;;
68763;SDS011;55754;52.038;5.566;2022-12-16T04:16:18;43.25;;;20.88;;
68763;SDS011;55754;52.038;5.566;2022-12-16T04:19:03;36.58;;;19.27;;
68763;SDS011;55754;52.038;5.566;2022-12-16T04:21:47;40.78;;;19.63;;
68763;SDS011;55754;52.038;5.566;2022-12-16T04:24:31;40.60;;;19.75;;
68763;SDS011;55754;52.038;5.566;2022-12-16T04:26:57;42.45;;;19.95;;
68763;SDS011;55754;52.038;5.566;2022-12-16T04:29:42;40.33;;;19.88;;
68763;SDS011;55754;52.038;5.566;2022-12-16T04:32:26;40.78;;;19.67;;
68763;SDS011;55754;52.038;5.566;2022-12-16T04:35:12;43.97;;;20.17;;
68763;SDS011;55754;52.038;5.566;2022-12-16T04:37:56;40.85;;;19.48;;
68763;SDS011;55754;52.038;5.566;2022-12-16T04:40:40;42.25;;;19.63;;
68763;SDS011;55754;52.038;5.566;2022-12-16T04:43:24;41.08;;;18.65;;
68763;SDS011;55754;52.038;5.566;2022-12-16T04:46:08;41.05;;;19.38;;
68763;SDS011;55754;52.038;5.566;2022-12-16T04:48:52;36.73;;;19.20;;
68763;SDS011;55754;52.038;5.566;2022-12-16T04:51:36;38.60;;;19.42;;
68763;SDS011;55754;52.038;5.566;2022-12-16T04:54:20;38.03;;;17.85;;
68763;SDS011;55754;52.038;5.566;2022-12-16T04:57:21;32.10;;;17.55;;
68763;SDS011;55754;52.038;5.566;2022-12-16T05:00:05;32.92;;;17.55;;
68763;SDS011;55754;52.038;5.566;2022-12-16T05:02:50;35.30;;;16.83;;
68763;SDS011;55754;52.038;5.566;2022-12-16T05:05:34;35.17;;;17.17;;
68763;SDS011;55754;52.038;5.566;2022-12-16T05:08:21;33.72;;;17.00;;
68763;SDS011;55754;52.038;5.566;2022-12-16T05:11:05;34.83;;;17.30;;
68763;SDS011;55754;52.038;5.566;2022-12-16T05:13:59;36.55;;;17.40;;
68763;SDS011;55754;52.038;5.566;2022-12-16T05:16:43;33.47;;;17.07;;
68763;SDS011;55754;52.038;5.566;2022-12-16T05:19:27;30.63;;;16.38;;
68763;SDS011;55754;52.038;5.566;2022-12-16T05:22:11;32.88;;;16.10;;
68763;SDS011;55754;52.038;5.566;2022-12-16T05:24:55;34.92;;;17.30;;
68763;SDS011;55754;52.038;5.566;2022-12-16T05:27:42;34.15;;;16.42;;
68763;SDS011;55754;52.038;5.566;2022-12-16T05:30:26;39.70;;;16.50;;
68763;SDS011;55754;52.038;5.566;2022-12-16T05:33:10;37.58;;;17.15;;
68763;SDS011;55754;52.038;5.566;2022-12-16T05:35:54;32.83;;;16.40;;
68763;SDS011;55754;52.038;5.566;2022-12-16T05:38:38;32.60;;;16.15;;
68763;SDS011;55754;52.038;5.566;2022-12-16T05:41:22;29.33;;;15.18;;
68763;SDS011;55754;52.038;5.566;2022-12-16T05:44:06;33.23;;;15.40;;
68763;SDS011;55754;52.038;5.566;2022-12-16T05:46:50;29.15;;;15.52;;
68763;SDS011;55754;52.038;5.566;2022-12-16T05:49:34;27.13;;;15.13;;
68763;SDS011;55754;52.038;5.566;2022-12-16T05:52:19;30.50;;;15.88;;
68763;SDS011;55754;52.038;5.566;2022-12-16T05:55:03;29.27;;;15.25;;
68763;SDS011;55754;52.038;5.566;2022-12-16T05:58:03;24.80;;;14.37;;
68763;SDS011;55754;52.038;5.566;2022-12-16T06:00:48;26.65;;;14.32;;
68763;SDS011;55754;52.038;5.566;2022-12-16T06:03:32;27.85;;;14.77;;
68763;SDS011;55754;52.038;5.566;2022-12-16T06:06:16;28.98;;;15.27;;
68763;SDS011;55754;52.038;5.566;2022-12-16T06:09:00;29.75;;;14.65;;
68763;SDS011;55754;52.038;5.566;2022-12-16T06:11:44;26.97;;;14.93;;
68763;SDS011;55754;52.038;5.566;2022-12-16T06:14:28;29.52;;;14.80;;
68763;SDS011;55754;52.038;5.566;2022-12-16T06:17:12;24.83;;;14.15;;
68763;SDS011;55754;52.038;5.566;2022-12-16T06:19:56;27.15;;;14.52;;
68763;SDS011;55754;52.038;5.566;2022-12-16T06:22:40;26.10;;;14.50;;
68763;SDS011;55754;52.038;5.566;2022-12-16T06:25:24;28.85;;;14.57;;
68763;SDS011;55754;52.038;5.566;2022-12-16T06:28:19;29.98;;;14.57;;
68763;SDS011;55754;52.038;5.566;2022-12-16T06:31:06;26.50;;;14.30;;
68763;SDS011;55754;52.038;5.566;2022-12-16T06:33:51;28.65;;;15.32;;
68763;SDS011;55754;52.038;5.566;2022-12-16T06:36:35;30.15;;;14.45;;
68763;SDS011;55754;52.038;5.566;2022-12-16T06:39:30;29.13;;;14.93;;
68763;SDS011;55754;52.038;5.566;2022-12-16T06:42:14;28.88;;;15.25;;
68763;SDS011;55754;52.038;5.566;2022-12-16T06:44:58;29.83;;;15.63;;
68763;SDS011;55754;52.038;5.566;2022-12-16T06:47:42;29.23;;;16.42;;
68763;SDS011;55754;52.038;5.566;2022-12-16T06:50:34;43.47;;;21.20;;
68763;SDS011;55754;52.038;5.566;2022-12-16T06:53:18;49.57;;;23.33;;
68763;SDS011;55754;52.038;5.566;2022-12-16T06:56:02;49.10;;;22.23;;
68763;SDS011;55754;52.038;5.566;2022-12-16T06:58:46;47.88;;;20.75;;
68763;SDS011;55754;52.038;5.566;2022-12-16T07:01:30;41.35;;;19.63;;
68763;SDS011;55754;52.038;5.566;2022-12-16T07:04:14;49.75;;;24.20;;
68763;SDS011;55754;52.038;5.566;2022-12-16T07:06:58;43.07;;;19.97;;
68763;SDS011;55754;52.038;5.566;2022-12-16T07:09:42;52.10;;;25.45;;
68763;SDS011;55754;52.038;5.566;2022-12-16T07:12:27;43.08;;;20.50;;
68763;SDS011;55754;52.038;5.566;2022-12-16T07:15:11;30.95;;;15.30;;
68763;SDS011;55754;52.038;5.566;2022-12-16T07:17:55;23.40;;;12.00;;
68763;SDS011;55754;52.038;5.566;2022-12-16T07:20:39;24.73;;;12.00;;
68763;SDS011;55754;52.038;5.566;2022-12-16T07:23:23;23.55;;;11.45;;
68763;SDS011;55754;52.038;5.566;2022-12-16T07:26:07;21.15;;;10.80;;
68763;SDS011;55754;52.038;5.566;2022-12-16T07:28:51;22.38;;;11.30;;
68763;SDS011;55754;52.038;5.566;2022-12-16T07:31:35;24.05;;;11.27;;
68763;SDS011;55754;52.038;5.566;2022-12-16T07:34:19;21.23;;;10.37;;
68763;SDS011;55754;52.038;5.566;2022-12-16T07:37:03;20.70;;;10.00;;
68763;SDS011;55754;52.038;5.566;2022-12-16T07:39:47;19.42;;;9.20;;
68763;SDS011;55754;52.038;5.566;2022-12-16T07:42:31;21.08;;;8.95;;
68763;SDS011;55754;52.038;5.566;2022-12-16T07:45:15;17.35;;;8.90;;
68763;SDS011;55754;52.038;5.566;2022-12-16T07:47:59;18.27;;;8.43;;
68763;SDS011;55754;52.038;5.566;2022-12-16T07:50:43;17.73;;;8.18;;
68763;SDS011;55754;52.038;5.566;2022-12-16T07:53:27;28.00;;;8.48;;
68763;SDS011;55754;52.038;5.566;2022-12-16T07:56:12;20.67;;;9.00;;
68763;SDS011;55754;52.038;5.566;2022-12-16T07:58:57;17.70;;;8.70;;
68763;SDS011;55754;52.038;5.566;2022-12-16T08:01:41;15.40;;;7.93;;
68763;SDS011;55754;52.038;5.566;2022-12-16T08:04:25;21.02;;;8.32;;
68763;SDS011;55754;52.038;5.566;2022-12-16T08:07:09;15.73;;;8.15;;
68763;SDS011;55754;52.038;5.566;2022-12-16T08:09:53;17.63;;;8.32;;
68763;SDS011;55754;52.038;5.566;2022-12-16T08:12:37;21.02;;;8.07;;
68763;SDS011;55754;52.038;5.566;2022-12-16T08:15:22;21.15;;;9.13;;
68763;SDS011;55754;52.038;5.566;2022-12-16T08:18:09;23.67;;;10.43;;
68763;SDS011;55754;52.038;5.566;2022-12-16T08:20:53;27.05;;;10.38;;
68763;SDS011;55754;52.038;5.566;2022-12-16T08:23:37;23.10;;;9.75;;
68763;SDS011;55754;52.038;5.566;2022-12-16T08:26:21;18.08;;;8.90;;
68763;SDS011;55754;52.038;5.566;2022-12-16T08:29:05;37.73;;;8.57;;
68763;SDS011;55754;52.038;5.566;2022-12-16T08:31:49;18.02;;;9.00;;
68763;SDS011;55754;52.038;5.566;2022-12-16T08:34:33;18.27;;;9.35;;
68763;SDS011;55754;52.038;5.566;2022-12-16T08:37:17;18.98;;;8.52;;
68763;SDS011;55754;52.038;5.566;2022-12-16T08:40:01;22.00;;;9.75;;
68763;SDS011;55754;52.038;5.566;2022-12-16T08:42:46;23.40;;;10.70;;
68763;SDS011;55754;52.038;5.566;2022-12-16T08:45:30;21.27;;;10.32;;
68763;SDS011;55754;52.038;5.566;2022-12-16T08:48:14;20.98;;;10.32;;
68763;SDS011;55754;52.038;5.566;2022-12-16T08:51:02;22.27;;;10.43;;
68763;SDS011;55754;52.038;5.566;2022-12-16T08:53:49;20.25;;;9.32;;
68763;SDS011;55754;52.038;5.566;2022-12-16T08:56:34;19.03;;;9.20;;
68763;SDS011;55754;52.038;5.566;2022-12-16T08:59:18;19.38;;;8.50;;
68763;SDS011;55754;52.038;5.566;2022-12-16T09:02:02;19.67;;;8.73;;
68763;SDS011;55754;52.038;5.566;2022-12-16T09:04:47;19.35;;;9.45;;
68763;SDS011;55754;52.038;5.566;2022-12-16T09:07:31;19.23;;;8.85;;
68763;SDS011;55754;52.038;5.566;2022-12-16T09:10:15;18.07;;;8.60;;
68763;SDS011;55754;52.038;5.566;2022-12-16T09:13:09;16.52;;;8.55;;
68763;SDS011;55754;52.038;5.566;2022-12-16T09:15:56;17.30;;;7.88;;
68763;SDS011;55754;52.038;5.566;2022-12-16T09:18:40;17.30;;;7.97;;
68763;SDS011;55754;52.038;5.566;2022-12-16T09:21:25;18.92;;;8.38;;
68763;SDS011;55754;52.038;5.566;2022-12-16T09:24:09;16.17;;;8.07;;
68763;SDS011;55754;52.038;5.566;2022-12-16T09:26:53;19.35;;;7.75;;
68763;SDS011;55754;52.038;5.566;2022-12-16T09:29:37;17.98;;;8.25;;
68763;SDS011;55754;52.038;5.566;2022-12-16T09:32:21;18.77;;;8.88;;
68763;SDS011;55754;52.038;5.566;2022-12-16T09:35:05;17.25;;;7.93;;
68763;SDS011;55754;52.038;5.566;2022-12-16T09:37:50;19.27;;;7.67;;
68763;SDS011;55754;52.038;5.566;2022-12-16T09:40:37;16.65;;;7.57;;
68763;SDS011;55754;52.038;5.566;2022-12-16T09:43:39;26.05;;;12.23;;
68763;SDS011;55754;52.038;5.566;2022-12-16T09:46:39;20.30;;;10.15;;
68763;SDS011;55754;52.038;5.566;2022-12-16T09:52:47;15.50;;;7.45;;
68763;SDS011;55754;52.038;5.566;2022-12-16T09:55:39;13.88;;;6.85;;
68763;SDS011;55754;52.038;5.566;2022-12-16T09:58:29;15.82;;;7.28;;
68763;SDS011;55754;52.038;5.566;2022-12-16T10:01:20;20.42;;;6.78;;
68763;SDS011;55754;52.038;5.566;2022-12-16T10:04:05;21.35;;;7.53;;
68763;SDS011;55754;52.038;5.566;2022-12-16T10:06:56;14.18;;;6.60;;
68763;SDS011;55754;52.038;5.566;2022-12-16T10:12:43;15.63;;;6.10;;
68763;SDS011;55754;52.038;5.566;2022-12-16T10:15:33;13.32;;;5.53;;
68763;SDS011;55754;52.038;5.566;2022-12-16T10:30:30;10.55;;;4.35;;
68763;SDS011;55754;52.038;5.566;2022-12-16T10:33:16;12.48;;;5.05;;
68763;SDS011;55754;52.038;5.566;2022-12-16T10:36:04;12.50;;;3.97;;
68763;SDS011;55754;52.038;5.566;2022-12-16T10:39:03;12.07;;;4.53;;
68763;SDS011;55754;52.038;5.566;2022-12-16T10:42:12;14.90;;;4.45;;
68763;SDS011;55754;52.038;5.566;2022-12-16T10:45:06;13.18;;;5.68;;
68763;SDS011;55754;52.038;5.566;2022-12-16T10:48:03;11.38;;;5.10;;
68763;SDS011;55754;52.038;5.566;2022-12-16T10:50:47;17.50;;;5.60;;
68763;SDS011;55754;52.038;5.566;2022-12-16T10:53:32;12.15;;;5.55;;
68763;SDS011;55754;52.038;5.566;2022-12-16T10:59:40;15.40;;;6.63;;
68763;SDS011;55754;52.038;5.566;2022-12-16T11:02:26;20.05;;;9.30;;
68763;SDS011;55754;52.038;5.566;2022-12-16T11:08:08;27.65;;;12.15;;
68763;SDS011;55754;52.038;5.566;2022-12-16T11:11:13;21.23;;;10.75;;
68763;SDS011;55754;52.038;5.566;2022-12-16T11:14:23;21.45;;;10.07;;
68763;SDS011;55754;52.038;5.566;2022-12-16T11:17:11;25.15;;;10.07;;
68763;SDS011;55754;52.038;5.566;2022-12-16T11:20:14;17.95;;;9.38;;
68763;SDS011;55754;52.038;5.566;2022-12-16T11:26:06;20.13;;;10.38;;
68763;SDS011;55754;52.038;5.566;2022-12-16T11:29:03;19.80;;;10.77;;
68763;SDS011;55754;52.038;5.566;2022-12-16T11:34:48;21.00;;;10.43;;
68763;SDS011;55754;52.038;5.566;2022-12-16T11:37:48;22.57;;;10.97;;
68763;SDS011;55754;52.038;5.566;2022-12-16T11:40:35;20.60;;;10.75;;
68763;SDS011;55754;52.038;5.566;2022-12-16T11:43:20;25.83;;;11.05;;
68763;SDS011;55754;52.038;5.566;2022-12-16T11:46:10;19.48;;;10.02;;
68763;SDS011;55754;52.038;5.566;2022-12-16T11:48:59;21.23;;;11.75;;
68763;SDS011;55754;52.038;5.566;2022-12-16T11:51:47;23.87;;;11.50;;
68763;SDS011;55754;52.038;5.566;2022-12-16T11:54:37;22.77;;;11.00;;
68763;SDS011;55754;52.038;5.566;2022-12-16T11:58:10;24.10;;;10.93;;
68763;SDS011;55754;52.038;5.566;2022-12-16T12:04:28;24.15;;;11.00;;
68763;SDS011;55754;52.038;5.566;2022-12-16T12:07:25;28.35;;;12.02;;
68763;SDS011;55754;52.038;5.566;2022-12-16T12:13:52;30.02;;;17.35;;
68763;SDS011;55754;52.038;5.566;2022-12-16T12:23:19;41.53;;;19.70;;
68763;SDS011;55754;52.038;5.566;2022-12-16T12:26:19;59.30;;;28.90;;
68763;SDS011;55754;52.038;5.566;2022-12-16T12:29:24;30.73;;;17.08;;
68763;SDS011;55754;52.038;5.566;2022-12-16T12:32:28;28.17;;;16.10;;
68763;SDS011;55754;52.038;5.566;2022-12-16T12:39:19;23.05;;;12.88;;
68763;SDS011;55754;52.038;5.566;2022-12-16T12:57:36;31.75;;;16.83;;
68763;SDS011;55754;52.038;5.566;2022-12-16T13:00:27;35.40;;;17.88;;
68763;SDS011;55754;52.038;5.566;2022-12-16T13:06:08;50.50;;;25.52;;
68763;SDS011;55754;52.038;5.566;2022-12-16T13:08:56;31.57;;;17.27;;
68763;SDS011;55754;52.038;5.566;2022-12-16T13:14:54;62.90;;;30.90;;
68763;SDS011;55754;52.038;5.566;2022-12-16T13:20:44;52.22;;;27.33;;
68763;SDS011;55754;52.038;5.566;2022-12-16T13:23:33;39.43;;;22.03;;
68763;SDS011;55754;52.038;5.566;2022-12-16T13:26:20;30.60;;;17.40;;
68763;SDS011;55754;52.038;5.566;2022-12-16T13:34:45;29.33;;;15.20;;
68763;SDS011;55754;52.038;5.566;2022-12-16T13:37:40;27.73;;;16.23;;
68763;SDS011;55754;52.038;5.566;2022-12-16T13:41:01;31.13;;;16.65;;
68763;SDS011;55754;52.038;5.566;2022-12-16T13:43:57;31.52;;;17.08;;
68763;SDS011;55754;52.038;5.566;2022-12-16T13:49:46;34.03;;;19.00;;
68763;SDS011;55754;52.038;5.566;2022-12-16T13:58:47;30.33;;;16.35;;
68763;SDS011;55754;52.038;5.566;2022-12-16T14:04:42;42.85;;;21.95;;
68763;SDS011;55754;52.038;5.566;2022-12-16T14:07:29;43.75;;;23.85;;
68763;SDS011;55754;52.038;5.566;2022-12-16T14:10:35;39.00;;;21.38;;
68763;SDS011;55754;52.038;5.566;2022-12-16T14:13:32;41.75;;;22.23;;
68763;SDS011;55754;52.038;5.566;2022-12-16T14:19:31;32.63;;;17.90;;
68763;SDS011;55754;52.038;5.566;2022-12-16T14:22:23;31.98;;;17.17;;
68763;SDS011;55754;52.038;5.566;2022-12-16T14:25:18;31.88;;;17.30;;
68763;SDS011;55754;52.038;5.566;2022-12-16T14:28:18;31.92;;;18.02;;
68763;SDS011;55754;52.038;5.566;2022-12-16T14:31:12;30.98;;;16.95;;
68763;SDS011;55754;52.038;5.566;2022-12-16T14:37:15;30.80;;;17.60;;
68763;SDS011;55754;52.038;5.566;2022-12-16T14:40:03;33.33;;;17.85;;
68763;SDS011;55754;52.038;5.566;2022-12-16T14:43:00;33.55;;;17.35;;
68763;SDS011;55754;52.038;5.566;2022-12-16T14:45:47;32.58;;;17.75;;
68763;SDS011;55754;52.038;5.566;2022-12-16T14:48:37;38.20;;;21.35;;
68763;SDS011;55754;52.038;5.566;2022-12-16T14:51:22;34.28;;;19.42;;
68763;SDS011;55754;52.038;5.566;2022-12-16T14:57:03;31.00;;;17.15;;
68763;SDS011;55754;52.038;5.566;2022-12-16T14:59:58;34.13;;;18.90;;
68763;SDS011;55754;52.038;5.566;2022-12-16T15:02:56;38.00;;;18.27;;
68763;SDS011;55754;52.038;5.566;2022-12-16T15:05:42;30.08;;;17.17;;
68763;SDS011;55754;52.038;5.566;2022-12-16T15:08:32;35.30;;;19.23;;
68763;SDS011;55754;52.038;5.566;2022-12-16T15:11:20;32.72;;;18.35;;
68763;SDS011;55754;52.038;5.566;2022-12-16T15:14:08;31.80;;;16.80;;
68763;SDS011;55754;52.038;5.566;2022-12-16T15:16:55;32.30;;;18.57;;
68763;SDS011;55754;52.038;5.566;2022-12-16T15:19:49;33.20;;;18.88;;
68763;SDS011;55754;52.038;5.566;2022-12-16T15:22:36;33.20;;;18.58;;
68763;SDS011;55754;52.038;5.566;2022-12-16T15:25:31;35.25;;;19.58;;
68763;SDS011;55754;52.038;5.566;2022-12-16T15:28:26;31.83;;;18.33;;
68763;SDS011;55754;52.038;5.566;2022-12-16T15:31:23;32.10;;;18.20;;
68763;SDS011;55754;52.038;5.566;2022-12-16T15:34:16;30.17;;;16.93;;
68763;SDS011;55754;52.038;5.566;2022-12-16T15:37:19;30.08;;;16.88;;
68763;SDS011;55754;52.038;5.566;2022-12-16T15:40:19;29.70;;;16.98;;
68763;SDS011;55754;52.038;5.566;2022-12-16T15:43:05;29.42;;;16.05;;
68763;SDS011;55754;52.038;5.566;2022-12-16T15:46:02;34.38;;;15.98;;
68763;SDS011;55754;52.038;5.566;2022-12-16T15:48:47;32.17;;;16.40;;
68763;SDS011;55754;52.038;5.566;2022-12-16T15:54:30;31.30;;;17.48;;
68763;SDS011;55754;52.038;5.566;2022-12-16T15:57:28;33.47;;;16.98;;
68763;SDS011;55754;52.038;5.566;2022-12-16T16:00:25;31.52;;;16.30;;
68763;SDS011;55754;52.038;5.566;2022-12-16T16:03:18;29.27;;;15.30;;
68763;SDS011;55754;52.038;5.566;2022-12-16T16:06:18;32.97;;;16.60;;
68763;SDS011;55754;52.038;5.566;2022-12-16T16:09:20;34.33;;;16.38;;
68763;SDS011;55754;52.038;5.566;2022-12-16T16:12:11;31.85;;;16.63;;
68763;SDS011;55754;52.038;5.566;2022-12-16T16:15:00;40.83;;;20.50;;
68763;SDS011;55754;52.038;5.566;2022-12-16T16:17:46;35.72;;;19.60;;
68763;SDS011;55754;52.038;5.566;2022-12-16T16:20:33;41.55;;;22.05;;
68763;SDS011;55754;52.038;5.566;2022-12-16T16:23:17;34.05;;;18.13;;
68763;SDS011;55754;52.038;5.566;2022-12-16T16:26:01;37.08;;;18.67;;
68763;SDS011;55754;52.038;5.566;2022-12-16T16:28:45;30.80;;;17.77;;
68763;SDS011;55754;52.038;5.566;2022-12-16T16:31:30;33.92;;;18.88;;
68763;SDS011;55754;52.038;5.566;2022-12-16T16:34:14;39.28;;;18.58;;
68763;SDS011;55754;52.038;5.566;2022-12-16T16:36:58;37.63;;;18.85;;
68763;SDS011;55754;52.038;5.566;2022-12-16T16:39:42;49.00;;;22.63;;
68763;SDS011;55754;52.038;5.566;2022-12-16T16:42:30;59.38;;;27.25;;
68763;SDS011;55754;52.038;5.566;2022-12-16T16:45:14;34.55;;;18.40;;
68763;SDS011;55754;52.038;5.566;2022-12-16T16:48:08;50.92;;;26.25;;
68763;SDS011;55754;52.038;5.566;2022-12-16T16:50:55;35.72;;;20.05;;
68763;SDS011;55754;52.038;5.566;2022-12-16T16:53:40;37.70;;;20.33;;
68763;SDS011;55754;52.038;5.566;2022-12-16T16:56:25;33.20;;;17.70;;
68763;SDS011;55754;52.038;5.566;2022-12-16T16:59:15;32.00;;;16.95;;
68763;SDS011;55754;52.038;5.566;2022-12-16T17:01:59;32.30;;;16.60;;
68763;SDS011;55754;52.038;5.566;2022-12-16T17:04:43;31.45;;;17.17;;
68763;SDS011;55754;52.038;5.566;2022-12-16T17:07:27;32.13;;;16.25;;
68763;SDS011;55754;52.038;5.566;2022-12-16T17:10:11;30.63;;;16.80;;
68763;SDS011;55754;52.038;5.566;2022-12-16T17:12:55;30.83;;;16.30;;
68763;SDS011;55754;52.038;5.566;2022-12-16T17:15:39;33.80;;;17.05;;
68763;SDS011;55754;52.038;5.566;2022-12-16T17:18:24;34.15;;;18.80;;
68763;SDS011;55754;52.038;5.566;2022-12-16T17:21:08;33.47;;;18.15;;
68763;SDS011;55754;52.038;5.566;2022-12-16T17:23:53;36.72;;;18.98;;
68763;SDS011;55754;52.038;5.566;2022-12-16T17:26:43;40.13;;;20.35;;
68763;SDS011;55754;52.038;5.566;2022-12-16T17:29:28;37.65;;;18.75;;
68763;SDS011;55754;52.038;5.566;2022-12-16T17:32:12;38.58;;;19.10;;
68763;SDS011;55754;52.038;5.566;2022-12-16T17:34:57;40.05;;;20.23;;
68763;SDS011;55754;52.038;5.566;2022-12-16T17:37:42;35.97;;;20.08;;
68763;SDS011;55754;52.038;5.566;2022-12-16T17:40:26;33.50;;;18.02;;
68763;SDS011;55754;52.038;5.566;2022-12-16T17:43:10;38.10;;;19.58;;
68763;SDS011;55754;52.038;5.566;2022-12-16T17:46:02;37.45;;;19.25;;
68763;SDS011;55754;52.038;5.566;2022-12-16T17:48:52;34.30;;;18.02;;
68763;SDS011;55754;52.038;5.566;2022-12-16T17:51:37;36.38;;;19.08;;
68763;SDS011;55754;52.038;5.566;2022-12-16T17:54:21;35.15;;;17.50;;
68763;SDS011;55754;52.038;5.566;2022-12-16T17:57:05;32.75;;;17.08;;
68763;SDS011;55754;52.038;5.566;2022-12-16T17:59:49;35.30;;;17.13;;
68763;SDS011;55754;52.038;5.566;2022-12-16T18:02:33;34.08;;;17.75;;
68763;SDS011;55754;52.038;5.566;2022-12-16T18:05:17;34.40;;;17.03;;
68763;SDS011;55754;52.038;5.566;2022-12-16T18:08:01;32.22;;;16.77;;
68763;SDS011;55754;52.038;5.566;2022-12-16T18:10:50;34.83;;;16.50;;
68763;SDS011;55754;52.038;5.566;2022-12-16T18:13:37;34.40;;;17.45;;